ES-0071 weather

Ronda
Ronda, Andalucía, Spain

Public forecast

Using degrees Celsius for public forecast. Weather courtesy of forecast.io.

METAR (pilot weather report)

Closest report is Málaga Airport, 29.8 nm (55.3 km) E. Retrieved 2018/10/21 11:00 UTC (2 hours ago):

LEMG 211100Z 27010KT 230V290 9999 FEW020 SCT033 22/16 Q1018 NOSIG

TAF (pilot weather forecast)

Closest forecast is Málaga Airport, 29.8 nm (55.3 km) E. Retrieved 2018/10/21 12:27 UTC (23 minutes ago):

TAF LEMG 211100Z 2112/2212 29007KT 9999 SCT025 TX23/2113Z TN17/2206Z BECMG 2112/2114 18006KT PROB30 TEMPO 2112/2116 4000 SHRA BKN020 SCT030TCU BECMG 2117/2120 28007KT